Longbridge, Louisiana
Current Conditions -  °F | °C
As of 8:15 AM on Thursday 18 Dec 2014 (Local Time) from KOPL Reporting Station
Overcast Overcast  
Wind Chill: 52°   Ceiling: 3900
Heat Index: 52°   Visibility: 10mi
Dew Point: 44°   Wind: 5mph
Humidity: 73%   Direction: 110°ESE
Pressure: 30.14"   Gusts: NA
Location:  30.9908°N, 92.0816°W
Report Text: KOPL 181415Z AUTO 11004KT 10SM BKN039 BKN048 OVC080 11/07 A3014 RMK AO2 T01110065
Loading
Personal Weather Stations






























Interactive Weather Map New forecast layout! Learn more

10-Day Weather Forecast

Advertisements
Track Severe Weather on mobile